createdAt,value
2022-08-17T00:00:43.125Z,100084.34
2022-08-17T00:03:12.673Z,100101.69
2022-08-17T00:05:53.475Z,100061.44
2022-08-17T00:08:26.194Z,100085.22
2022-08-17T00:10:59.885Z,100075.06
2022-08-17T00:13:40.801Z,100097.06
2022-08-17T00:16:14.949Z,100052.91
2022-08-17T00:19:06.565Z,100088.91
2022-08-17T00:21:44.679Z,100114.88
2022-08-17T00:24:23.110Z,100111.91
2022-08-17T00:26:51.754Z,100094.59
2022-08-17T00:29:20.477Z,100118.47
2022-08-17T00:31:50.041Z,100096.94
2022-08-17T00:34:19.696Z,100105.47
2022-08-17T00:36:48.305Z,100118.84
2022-08-17T00:39:17.330Z,100087.75
2022-08-17T00:41:46.100Z,100084.16
2022-08-17T00:44:15.139Z,100081.31
2022-08-17T00:46:44.835Z,100117.88
2022-08-17T00:49:20.187Z,100102.78
2022-08-17T00:51:53.798Z,100098.53
2022-08-17T00:54:40.985Z,100097.13
2022-08-17T00:57:40.415Z,100107.88
2022-08-17T01:00:22.148Z,100122.19
2022-08-17T01:02:50.940Z,100101.63
2022-08-17T01:05:22.308Z,100126.06
2022-08-17T01:07:54.179Z,100110.91
2022-08-17T01:10:58.657Z,100096.25
2022-08-17T01:13:18.074Z,100082.84
2022-08-17T01:15:58.540Z,100099.69
2022-08-17T01:18:28.229Z,100113.22
2022-08-17T01:21:03.303Z,100091.22
2022-08-17T01:23:32.162Z,100090.47
2022-08-17T01:26:02.958Z,100108.09
2022-08-17T01:28:54.686Z,100113.53
2022-08-17T01:31:23.502Z,99974.78
2022-08-17T01:33:53.049Z,100104.00
2022-08-17T01:36:23.227Z,100093.09
2022-08-17T01:38:54.046Z,100088.41
2022-08-17T01:41:23.549Z,100106.81
2022-08-17T01:43:59.796Z,100113.66
2022-08-17T01:46:32.722Z,100097.22
2022-08-17T01:49:02.073Z,100127.22
2022-08-17T01:51:33.312Z,100101.53
2022-08-17T01:54:09.398Z,100110.22
2022-08-17T01:56:41.254Z,100106.50
2022-08-17T01:59:11.855Z,100108.16
2022-08-17T02:01:40.966Z,100107.00
2022-08-17T02:04:09.814Z,100105.44
2022-08-17T02:06:53.764Z,100106.31
2022-08-17T02:09:29.923Z,100108.19
2022-08-17T02:12:04.831Z,100091.78
2022-08-17T02:14:52.487Z,100040.81
2022-08-17T02:17:21.652Z,100102.22
2022-08-17T02:19:50.246Z,100087.78
2022-08-17T02:22:19.105Z,100082.41
2022-08-17T02:25:01.044Z,100112.19
2022-08-17T02:27:30.706Z,100092.63
2022-08-17T02:29:59.394Z,100077.44
2022-08-17T02:32:28.764Z,100113.03
2022-08-17T02:34:58.867Z,100105.38
2022-08-17T02:37:29.153Z,100099.81
2022-08-17T02:39:59.522Z,100100.22
2022-08-17T02:42:39.003Z,100090.94
2022-08-17T02:45:14.564Z,100110.34
2022-08-17T02:47:44.878Z,100111.09
2022-08-17T02:50:16.059Z,100104.63
2022-08-17T02:52:47.508Z,100096.38
2022-08-17T02:55:33.337Z,100093.16
2022-08-17T02:58:02.748Z,100099.59
2022-08-17T03:00:35.050Z,100091.28
2022-08-17T03:03:06.512Z,100099.47
2022-08-17T03:05:37.486Z,100095.91
2022-08-17T03:08:07.605Z,100091.59
2022-08-17T03:10:42.301Z,100093.06
2022-08-17T03:13:14.016Z,100085.75
2022-08-17T03:15:48.573Z,100101.25
2022-08-17T03:18:25.435Z,100079.78
2022-08-17T03:21:00.977Z,100084.84
2022-08-17T03:23:30.424Z,100092.78
2022-08-17T03:25:59.556Z,100059.72
2022-08-17T03:28:29.005Z,100088.72
2022-08-17T03:30:57.676Z,100068.91
2022-08-17T03:33:26.229Z,100087.44
2022-08-17T03:35:54.885Z,100069.63
2022-08-17T03:38:23.580Z,100067.63
2022-08-17T03:40:57.676Z,100086.03
2022-08-17T03:43:33.808Z,100067.94
2022-08-17T03:46:34.594Z,100092.63
2022-08-17T03:49:27.789Z,100076.09
2022-08-17T03:52:16.265Z,100081.34
2022-08-17T03:55:04.295Z,100078.69
2022-08-17T03:57:33.507Z,100072.69
2022-08-17T04:00:02.055Z,100064.28
2022-08-17T04:02:40.155Z,100059.72
2022-08-17T04:05:09.138Z,100066.78
2022-08-17T04:07:37.550Z,100088.53
2022-08-17T04:10:06.398Z,100080.50
2022-08-17T04:12:50.248Z,100066.09
2022-08-17T04:15:19.285Z,100069.03
2022-08-17T04:17:48.361Z,100034.88
2022-08-17T04:20:18.624Z,100056.06
2022-08-17T04:23:17.955Z,100073.56
2022-08-17T04:25:49.669Z,100037.41
2022-08-17T04:28:19.947Z,100081.31
2022-08-17T04:30:48.831Z,100060.53
2022-08-17T04:33:27.454Z,100067.63
2022-08-17T04:36:02.013Z,100068.91
2022-08-17T04:38:34.763Z,100050.84
2022-08-17T04:41:22.832Z,100039.53
2022-08-17T04:43:59.331Z,100076.19
2022-08-17T04:46:34.400Z,100011.63
2022-08-17T04:49:06.874Z,100034.66
2022-08-17T04:51:54.524Z,100054.56
2022-08-17T04:54:25.516Z,100068.31
2022-08-17T04:56:54.107Z,100034.00
2022-08-17T04:59:26.929Z,100046.16
2022-08-17T05:01:55.373Z,100052.13
2022-08-17T05:04:34.312Z,100064.25
2022-08-17T05:07:05.344Z,100061.13
2022-08-17T05:09:33.826Z,100057.69
2022-08-17T05:12:04.021Z,100066.88
2022-08-17T05:14:33.627Z,100077.00
2022-08-17T05:17:07.177Z,100077.72
2022-08-17T05:19:39.815Z,100031.03
2022-08-17T05:22:08.487Z,100022.19
2022-08-17T05:24:40.715Z,100029.50
2022-08-17T05:27:18.844Z,100037.44
2022-08-17T05:29:47.869Z,100012.59
2022-08-17T05:32:39.055Z,100063.56
2022-08-17T05:35:06.544Z,100035.75
2022-08-17T05:37:38.460Z,100039.25
2022-08-17T05:40:07.722Z,100052.59
2022-08-17T05:42:36.236Z,100061.41
2022-08-17T05:45:05.746Z,100028.34
2022-08-17T05:47:34.607Z,100052.63
2022-08-17T05:50:09.924Z,100048.16
2022-08-17T05:52:51.101Z,99997.59
2022-08-17T05:55:40.666Z,100035.97
2022-08-17T05:58:25.803Z,100068.97
2022-08-17T06:01:00.821Z,100043.22
2022-08-17T06:03:54.648Z,100030.78
2022-08-17T06:06:53.206Z,100040.44
2022-08-17T06:09:37.060Z,100045.63
2022-08-17T06:12:28.365Z,100056.47
2022-08-17T06:15:28.316Z,100039.63
2022-08-17T06:18:01.511Z,100024.75
2022-08-17T06:20:49.838Z,100052.88
2022-08-17T06:23:42.473Z,100028.78
2022-08-17T06:26:34.536Z,100032.16
2022-08-17T06:29:18.765Z,100052.97
2022-08-17T06:31:47.617Z,99999.38
2022-08-17T06:34:16.420Z,99997.91
2022-08-17T06:36:50.924Z,100036.00
2022-08-17T06:39:59.008Z,100032.91
2022-08-17T06:42:55.077Z,100021.75
2022-08-17T06:45:49.767Z,100032.91
2022-08-17T06:48:25.795Z,100035.09
2022-08-17T06:51:00.735Z,100035.59
2022-08-17T06:53:47.031Z,100020.38
2022-08-17T06:56:53.511Z,100007.91
2022-08-17T06:59:20.742Z,100006.19
2022-08-17T07:01:53.020Z,100011.66
2022-08-17T07:04:26.929Z,100037.13
2022-08-17T07:07:27.696Z,99999.03
2022-08-17T07:09:59.457Z,100029.09
2022-08-17T07:12:38.325Z,100036.69
2022-08-17T07:15:24.207Z,100022.72
2022-08-17T07:17:52.821Z,100017.06
2022-08-17T07:20:23.356Z,100007.19
2022-08-17T07:23:30.988Z,100042.38
2022-08-17T07:26:10.456Z,99991.97
2022-08-17T07:28:39.776Z,100026.28
2022-08-17T07:31:09.394Z,100003.41
2022-08-17T07:33:40.014Z,100023.88
2022-08-17T07:36:29.777Z,99995.91
2022-08-17T07:38:59.093Z,100027.25
2022-08-17T07:41:53.168Z,100037.41
2022-08-17T07:44:18.333Z,100038.41
2022-08-17T07:47:12.937Z,100022.16
2022-08-17T07:49:48.765Z,100036.56
2022-08-17T07:52:50.553Z,100034.31
2022-08-17T07:55:31.163Z,100021.16
2022-08-17T07:58:00.910Z,100009.94
2022-08-17T08:00:32.020Z,100041.81
2022-08-17T08:03:18.095Z,100046.03
2022-08-17T08:05:54.200Z,100044.66
2022-08-17T08:08:28.729Z,100054.84
2022-08-17T08:11:07.022Z,100027.06
2022-08-17T08:13:43.137Z,100021.19
2022-08-17T08:16:30.215Z,100027.53
2022-08-17T08:19:01.945Z,100028.25
2022-08-17T08:21:50.628Z,100029.06
2022-08-17T08:24:44.230Z,100049.84
2022-08-17T08:27:29.065Z,100028.09
2022-08-17T08:30:21.812Z,100039.97
2022-08-17T08:33:18.165Z,100041.13
2022-08-17T08:36:56.627Z,99989.59
2022-08-17T08:39:30.652Z,100014.56
2022-08-17T08:42:24.008Z,100013.00
2022-08-17T08:45:04.772Z,100037.97
2022-08-17T08:47:54.748Z,100023.59
2022-08-17T08:51:08.611Z,100037.72
2022-08-17T08:53:53.558Z,100048.69
2022-08-17T08:56:25.045Z,100043.56
2022-08-17T08:59:04.180Z,100027.88
2022-08-17T09:01:50.282Z,100039.63
2022-08-17T09:05:10.634Z,100046.41
2022-08-17T09:07:52.641Z,100043.94
2022-08-17T09:10:28.526Z,100043.50
2022-08-17T09:13:39.985Z,100010.72
2022-08-17T09:16:23.951Z,100014.34
2022-08-17T09:19:00.954Z,100024.66
2022-08-17T09:21:47.946Z,100036.25
2022-08-17T09:24:36.787Z,100017.66
2022-08-17T09:27:14.135Z,100050.41
2022-08-17T09:29:58.620Z,100026.13
2022-08-17T09:33:05.457Z,100054.38
2022-08-17T09:35:40.078Z,100011.19
2022-08-17T09:38:20.796Z,100041.81
2022-08-17T09:42:02.779Z,100045.88
2022-08-17T09:45:09.226Z,100040.06
2022-08-17T09:48:18.059Z,100046.47
2022-08-17T09:51:07.623Z,100011.03
2022-08-17T09:53:40.255Z,100018.91
2022-08-17T09:56:26.509Z,100030.19
2022-08-17T09:59:11.867Z,100027.28
2022-08-17T10:01:58.189Z,100050.34
2022-08-17T10:04:30.446Z,100048.13
2022-08-17T10:07:05.151Z,100043.00
2022-08-17T10:09:33.725Z,100051.09
2022-08-17T10:12:29.961Z,100047.00
2022-08-17T10:15:26.606Z,100056.34
2022-08-17T10:18:41.567Z,100064.53
2022-08-17T10:21:32.740Z,100068.28
2022-08-17T10:25:20.879Z,99959.50
2022-08-17T10:27:52.944Z,100026.97
2022-08-17T10:30:27.974Z,100050.34
2022-08-17T10:33:25.902Z,100075.09
2022-08-17T10:36:20.442Z,100077.03
2022-08-17T10:38:59.151Z,100056.41
2022-08-17T10:41:33.888Z,100078.47
2022-08-17T10:44:40.232Z,100032.72
2022-08-17T10:47:19.115Z,100054.63
2022-08-17T10:49:54.546Z,100068.72
2022-08-17T10:52:31.119Z,100075.06
2022-08-17T10:55:02.485Z,100076.50
2022-08-17T10:57:32.367Z,100082.94
2022-08-17T11:00:29.152Z,100079.81
2022-08-17T11:02:59.211Z,100061.75
2022-08-17T11:05:46.294Z,100080.28
2022-08-17T11:08:58.266Z,100080.41
2022-08-17T11:11:36.596Z,100065.91
2022-08-17T11:14:24.682Z,100083.00
2022-08-17T11:17:24.988Z,100083.72
2022-08-17T11:20:11.512Z,100084.53
2022-08-17T11:23:18.956Z,100088.13
2022-08-17T11:25:57.778Z,100053.56
2022-08-17T11:28:34.989Z,100093.31
2022-08-17T11:31:38.680Z,100086.56
2022-08-17T11:34:19.956Z,100083.72
2022-08-17T11:37:21.617Z,100097.19
2022-08-17T11:40:07.695Z,100082.34
2022-08-17T11:42:48.223Z,100082.50
2022-08-17T11:45:45.818Z,100096.63
2022-08-17T11:48:51.647Z,100121.97
2022-08-17T11:51:36.305Z,100115.97
2022-08-17T11:54:34.575Z,100092.22
2022-08-17T11:57:28.021Z,100124.66
2022-08-17T11:59:58.596Z,100100.03
2022-08-17T12:02:33.690Z,100130.34
2022-08-17T12:05:03.319Z,100128.66
2022-08-17T12:07:35.436Z,100105.25
2022-08-17T12:10:06.818Z,100165.88
2022-08-17T12:12:36.581Z,100163.25
2022-08-17T12:15:11.148Z,100100.78
2022-08-17T12:17:43.008Z,100158.00
2022-08-17T12:20:29.314Z,100125.19
2022-08-17T12:23:05.552Z,100164.09
2022-08-17T12:25:46.145Z,100155.25
2022-08-17T12:28:31.290Z,100154.53
2022-08-17T12:31:01.813Z,100150.91
2022-08-17T12:33:30.808Z,100161.13
2022-08-17T12:36:09.712Z,100156.13
2022-08-17T12:38:39.416Z,100126.44
2022-08-17T12:41:27.972Z,100163.81
2022-08-17T12:44:02.858Z,100162.56
2022-08-17T12:46:46.673Z,100126.03
2022-08-17T12:49:24.618Z,100130.81
2022-08-17T12:52:08.383Z,100137.44
2022-08-17T12:54:57.942Z,100160.72
2022-08-17T12:57:49.758Z,100151.84
2022-08-17T13:00:28.201Z,100132.16
2022-08-17T13:03:13.605Z,100134.16
2022-08-17T13:05:54.982Z,100145.00
2022-08-17T13:08:32.907Z,100152.81
2022-08-17T13:11:03.206Z,100130.69
2022-08-17T13:13:35.498Z,100145.06
2022-08-17T13:16:17.359Z,100147.31
2022-08-17T13:18:51.123Z,100125.28
2022-08-17T13:21:19.777Z,100152.25
2022-08-17T13:24:06.732Z,100171.34
2022-08-17T13:26:45.046Z,100174.84
2022-08-17T13:29:37.107Z,100147.06
2022-08-17T13:32:07.939Z,100161.25
2022-08-17T13:35:15.377Z,100158.19
2022-08-17T13:37:42.671Z,100133.06
2022-08-17T13:40:11.423Z,100174.69
2022-08-17T13:42:53.554Z,100179.56
2022-08-17T13:45:38.857Z,100172.34
2022-08-17T13:48:33.248Z,100157.63
2022-08-17T13:51:04.774Z,100178.50
2022-08-17T13:53:40.214Z,100177.53
2022-08-17T13:56:33.363Z,100184.25
2022-08-17T13:59:05.900Z,100182.97
2022-08-17T14:01:34.290Z,100183.56
2022-08-17T14:04:07.079Z,100171.66
2022-08-17T14:06:52.940Z,100148.19
2022-08-17T14:09:37.040Z,100175.25
2022-08-17T14:12:11.179Z,100177.06
2022-08-17T14:14:41.542Z,100186.66
2022-08-17T14:17:11.386Z,100143.16
2022-08-17T14:19:40.345Z,100150.34
2022-08-17T14:22:15.663Z,100171.41
2022-08-17T14:24:45.093Z,100129.63
2022-08-17T14:27:18.599Z,100183.75
2022-08-17T14:29:47.764Z,100190.47
2022-08-17T14:32:29.669Z,100185.66
2022-08-17T14:34:58.960Z,100192.00
2022-08-17T14:37:29.642Z,100178.56
2022-08-17T14:40:00.923Z,100174.94
2022-08-17T14:42:33.395Z,100192.16
2022-08-17T14:45:06.923Z,100189.25
2022-08-17T14:47:55.585Z,100186.34
2022-08-17T14:50:24.440Z,100148.25
2022-08-17T14:52:53.067Z,100178.50
2022-08-17T14:55:21.939Z,100175.06
2022-08-17T14:57:50.617Z,100196.78
2022-08-17T15:00:19.552Z,100152.72
2022-08-17T15:02:58.741Z,100194.53
2022-08-17T15:05:34.218Z,100176.81
2022-08-17T15:08:06.142Z,100199.47
2022-08-17T15:10:35.020Z,100195.47
2022-08-17T15:13:04.061Z,100203.44
2022-08-17T15:15:32.926Z,100184.59
2022-08-17T15:18:01.917Z,100170.19
2022-08-17T15:20:30.992Z,100141.50
2022-08-17T15:23:00.159Z,100206.50
2022-08-17T15:25:32.380Z,100210.94
2022-08-17T15:28:01.986Z,100192.97
2022-08-17T15:30:32.023Z,100208.78
2022-08-17T15:33:01.766Z,100212.38
2022-08-17T15:35:32.827Z,100197.13
2022-08-17T15:38:11.130Z,100212.56
2022-08-17T15:40:49.198Z,100206.03
2022-08-17T15:43:27.286Z,100186.50
2022-08-17T15:46:03.998Z,100184.22
2022-08-17T15:48:43.605Z,100168.88
2022-08-17T15:51:16.583Z,100169.53
2022-08-17T15:53:49.264Z,100208.88
2022-08-17T15:56:18.235Z,100191.06
2022-08-17T15:58:48.403Z,100187.56
2022-08-17T16:01:44.636Z,100186.81
2022-08-17T16:04:27.000Z,100204.97
2022-08-17T16:07:00.629Z,100140.44
2022-08-17T16:09:29.146Z,100204.25
2022-08-17T16:11:57.813Z,100189.63
2022-08-17T16:14:34.910Z,100138.72
2022-08-17T16:17:05.261Z,100158.63
2022-08-17T16:19:54.210Z,100166.59
2022-08-17T16:22:41.700Z,100151.97
2022-08-17T16:25:20.427Z,100170.19
2022-08-17T16:27:53.910Z,100141.38
2022-08-17T16:30:25.279Z,100202.16
2022-08-17T16:32:55.338Z,100168.88
2022-08-17T16:35:27.560Z,100183.75
2022-08-17T16:37:58.995Z,100183.94
2022-08-17T16:40:29.594Z,100155.41
2022-08-17T16:43:00.085Z,100144.66
2022-08-17T16:45:37.080Z,100182.22
2022-08-17T16:48:05.924Z,100158.41
2022-08-17T16:50:35.336Z,100155.97
2022-08-17T16:53:19.150Z,100194.06
2022-08-17T16:55:54.316Z,100152.72
2022-08-17T16:58:23.344Z,100153.66
2022-08-17T17:00:52.200Z,100161.94
2022-08-17T17:03:25.478Z,100192.56
2022-08-17T17:06:09.299Z,100162.69
2022-08-17T17:08:56.337Z,100188.91
2022-08-17T17:11:44.922Z,100186.56
2022-08-17T17:14:43.817Z,100134.69
2022-08-17T17:17:18.177Z,100164.38
2022-08-17T17:20:03.878Z,100151.28
2022-08-17T17:22:42.105Z,100155.34
2022-08-17T17:25:37.743Z,100151.28
2022-08-17T17:28:28.593Z,100089.63
2022-08-17T17:31:18.474Z,100183.78
2022-08-17T17:33:53.914Z,100161.19
2022-08-17T17:36:35.677Z,100195.59
2022-08-17T17:39:14.048Z,100183.91
2022-08-17T17:42:15.243Z,100194.03
2022-08-17T17:45:09.995Z,100135.19
2022-08-17T17:47:39.056Z,100182.94
2022-08-17T17:50:09.078Z,100206.66
2022-08-17T17:52:53.054Z,100192.59
2022-08-17T17:55:27.707Z,100203.25
2022-08-17T17:58:10.234Z,100210.34
2022-08-17T18:00:48.637Z,100177.13
2022-08-17T18:03:34.075Z,100114.78
2022-08-17T18:06:20.248Z,100203.53
2022-08-17T18:09:03.956Z,100136.22
2022-08-17T18:12:03.402Z,100216.25
2022-08-17T18:14:52.374Z,100201.84
2022-08-17T18:17:21.103Z,100207.72
2022-08-17T18:19:49.578Z,100188.16
2022-08-17T18:22:22.214Z,100161.66
2022-08-17T18:24:56.975Z,100180.38
2022-08-17T18:27:38.736Z,100189.94
2022-08-17T18:30:13.377Z,100195.66
2022-08-17T18:32:45.282Z,100174.25
2022-08-17T18:35:16.470Z,100200.19
2022-08-17T18:37:53.437Z,100143.22
2022-08-17T18:40:22.237Z,100199.69
2022-08-17T18:43:25.352Z,100204.31
2022-08-17T18:45:56.979Z,100188.84
2022-08-17T18:49:00.448Z,100180.63
2022-08-17T18:51:42.195Z,100119.75
2022-08-17T18:54:25.774Z,100175.84
2022-08-17T18:57:02.735Z,100181.91
2022-08-17T18:59:49.996Z,100192.09
2022-08-17T19:02:36.078Z,100182.66
2022-08-17T19:05:28.915Z,100162.34
2022-08-17T19:08:18.176Z,100177.88
2022-08-17T19:10:50.976Z,100180.03
2022-08-17T19:13:29.454Z,100185.50
2022-08-17T19:16:11.610Z,100179.28
2022-08-17T19:19:15.183Z,100190.03
2022-08-17T19:21:55.429Z,100173.00
2022-08-17T19:24:31.393Z,100184.03
2022-08-17T19:27:22.186Z,100159.44
2022-08-17T19:30:07.005Z,100178.22
2022-08-17T19:32:37.062Z,100135.31
2022-08-17T19:35:10.449Z,100157.56
2022-08-17T19:37:54.555Z,100133.09
2022-08-17T19:40:53.673Z,100175.16
2022-08-17T19:43:52.048Z,100159.31
2022-08-17T19:46:36.207Z,100171.00
2022-08-17T19:49:40.950Z,100166.66
2022-08-17T19:52:35.257Z,100164.44
2022-08-17T19:55:14.758Z,100168.78
2022-08-17T19:58:04.980Z,100129.41
2022-08-17T20:00:40.844Z,100164.44
2022-08-17T20:03:17.126Z,100143.31
2022-08-17T20:06:12.123Z,100150.06
2022-08-17T20:08:57.891Z,100101.91
2022-08-17T20:11:33.663Z,100070.38
2022-08-17T20:14:07.897Z,100126.50
2022-08-17T20:16:36.733Z,100138.47
2022-08-17T20:19:18.017Z,100148.19
2022-08-17T20:22:10.433Z,100131.03
2022-08-17T20:24:55.856Z,100142.91
2022-08-17T20:27:31.630Z,100142.69
2022-08-17T20:30:13.164Z,100152.63
2022-08-17T20:32:58.182Z,100139.56
2022-08-17T20:35:33.784Z,100146.41
2022-08-17T20:38:07.295Z,100124.97
2022-08-17T20:41:04.445Z,100143.94
2022-08-17T20:43:36.236Z,100152.47
2022-08-17T20:46:16.794Z,100150.00
2022-08-17T20:48:51.388Z,100148.13
2022-08-17T20:52:04.322Z,100144.09
2022-08-17T20:54:52.438Z,100153.47
2022-08-17T20:57:49.712Z,100156.22
2022-08-17T21:00:30.568Z,100149.31
2022-08-17T21:03:26.115Z,100158.97
2022-08-17T21:06:11.104Z,100154.41
2022-08-17T21:08:54.806Z,100161.50
2022-08-17T21:12:03.104Z,100163.22
2022-08-17T21:14:32.493Z,100127.44
2022-08-17T21:17:38.825Z,100165.25
2022-08-17T21:20:26.162Z,100173.13
2022-08-17T21:23:12.948Z,100172.25
2022-08-17T21:25:44.269Z,100168.91
2022-08-17T21:29:01.686Z,100124.84
2022-08-17T21:32:00.964Z,100166.75
2022-08-17T21:34:44.234Z,100172.91
2022-08-17T21:37:24.954Z,100171.25
2022-08-17T21:40:01.743Z,100168.84
2022-08-17T21:42:35.038Z,100170.56
2022-08-17T21:45:19.324Z,100166.69
2022-08-17T21:48:13.846Z,100177.88
2022-08-17T21:50:46.335Z,100151.13
2022-08-17T21:53:32.894Z,100164.34
2022-08-17T21:56:02.031Z,100166.84
2022-08-17T21:58:40.974Z,100180.66
2022-08-17T22:01:20.040Z,100155.88
2022-08-17T22:03:59.603Z,100178.38
2022-08-17T22:06:39.009Z,100153.69
2022-08-17T22:09:11.064Z,100187.19
2022-08-17T22:11:56.823Z,100171.34
2022-08-17T22:14:52.960Z,100143.25
2022-08-17T22:17:30.469Z,100187.09
2022-08-17T22:20:10.074Z,100169.78
2022-08-17T22:23:19.259Z,100130.91
2022-08-17T22:26:09.532Z,100206.28
2022-08-17T22:28:50.983Z,100187.63
2022-08-17T22:31:26.064Z,100195.19
2022-08-17T22:34:01.156Z,100206.63
2022-08-17T22:36:30.215Z,100199.78
2022-08-17T22:39:11.144Z,100200.72
2022-08-17T22:41:54.824Z,100149.69
2022-08-17T22:44:27.961Z,100167.41
2022-08-17T22:47:05.415Z,100183.13
2022-08-17T22:50:01.535Z,100200.53
2022-08-17T22:52:57.318Z,100206.59
2022-08-17T22:55:44.525Z,100211.69
2022-08-17T22:58:34.427Z,100187.31
2022-08-17T23:01:29.084Z,100213.47
2022-08-17T23:04:02.041Z,100182.59
2022-08-17T23:06:34.555Z,100212.63
2022-08-17T23:09:05.238Z,100194.03
2022-08-17T23:11:49.089Z,100216.22
2022-08-17T23:14:23.036Z,100217.97
2022-08-17T23:16:52.015Z,100156.53
2022-08-17T23:19:22.542Z,100206.09
2022-08-17T23:21:54.506Z,100213.72
2022-08-17T23:24:26.812Z,100217.34
2022-08-17T23:26:57.907Z,100213.00
2022-08-17T23:29:29.972Z,100192.31
2022-08-17T23:32:02.089Z,100208.56
2022-08-17T23:34:31.270Z,100221.56
2022-08-17T23:37:03.053Z,100210.34
2022-08-17T23:39:32.155Z,100204.47
2022-08-17T23:42:05.638Z,100231.09
2022-08-17T23:44:34.886Z,100196.59
2022-08-17T23:47:05.609Z,100195.88
2022-08-17T23:49:35.038Z,100198.44
2022-08-17T23:52:08.254Z,100193.31
2022-08-17T23:54:44.096Z,100206.88
2022-08-17T23:57:16.061Z,100196.53
2022-08-17T23:59:45.204Z,100228.25
